Time;durP1;ratioP1;P1;durP2;ratioP2;P2;SDS_P1;SDS_P2;PMS_P1;PMS_P2;Temp;Humidity;BMP_temperature;BMP_pressure;BME280_temperature;BME280_humidity;BME280_pressure;Samples;Min_cycle;Max_cycle;Signal;HPM_P1;HPM_P2
2023/09/12 03:01:19;;;;;;;;;;;23.60;58.80;;;;;;5545565;22;45970;-83
2023/09/12 03:03:46;;;;;;;;;;;23.60;58.80;;;;;;4957289;28;45377;-84
2023/09/12 03:06:12;;;;;;;;;;;23.60;58.80;;;;;;4978103;28;45364;-81
2023/09/12 03:08:38;;;;;;;;;;;23.60;58.80;;;;;;4972975;28;45145;-84
2023/09/12 03:11:03;;;;;;;;;;;23.60;59.40;;;;;;4964245;28;45369;-84
2023/09/12 03:13:29;;;;;;;;;;;23.60;58.80;;;;;;4958413;28;45260;-82
2023/09/12 03:15:55;;;;;;;;;;;23.60;58.80;;;;;;4944492;28;45249;-84
2023/09/12 03:18:20;;;;;;;;;;;23.60;58.80;;;;;;4954012;28;44952;-84
2023/09/12 03:20:46;;;;;;;;;;;23.60;58.80;;;;;;4946647;28;46095;-83
2023/09/12 03:23:12;;;;;;;;;;;23.60;59.40;;;;;;4973115;28;45304;-82
2023/09/12 03:25:38;;;;;;;;;;;23.60;58.80;;;;;;4951719;28;45523;-84
2023/09/12 03:28:03;;;;;;;;;;;23.60;58.80;;;;;;4938510;28;45271;-84
2023/09/12 03:30:29;;;;;;;;;;;23.60;58.80;;;;;;4940915;28;46757;-83
2023/09/12 03:32:55;;;;;;;;;;;23.60;58.80;;;;;;4947582;28;45520;-84
2023/09/12 03:35:21;;;;;;;;;;;23.60;58.80;;;;;;4961128;28;45640;-83
2023/09/12 03:37:47;;;;;;;;;;;23.60;58.80;;;;;;4963460;28;45321;-84
2023/09/12 03:40:13;;;;;;;;;;;23.60;58.80;;;;;;4949278;28;46804;-84
2023/09/12 03:42:38;;;;;;;;;;;23.50;58.70;;;;;;4962598;28;45354;-84
2023/09/12 03:45:04;;;;;;;;;;;23.60;58.80;;;;;;4966180;28;45629;-82
2023/09/12 03:47:30;;;;;;;;;;;23.60;59.30;;;;;;4938335;28;45527;-80
2023/09/12 03:49:55;;;;;;;;;;;23.60;58.70;;;;;;4957263;28;47415;-84
2023/09/12 03:52:21;;;;;;;;;;;23.60;58.70;;;;;;4947657;28;45220;-83
2023/09/12 03:54:48;;;;;;;;;;;23.60;58.70;;;;;;4954732;28;45150;-83
2023/09/12 03:57:13;;;;;;;;;;;23.60;58.70;;;;;;4962427;28;45655;-83
2023/09/12 03:59:39;;;;;;;;;;;23.60;58.70;;;;;;4983927;28;46261;-84
2023/09/12 04:02:05;;;;;;;;;;;23.60;58.70;;;;;;4955233;28;45204;-84
2023/09/12 04:04:30;;;;;;;;;;;23.50;58.70;;;;;;4931525;28;45135;-84
2023/09/12 04:06:56;;;;;;;;;;;23.50;58.70;;;;;;4946129;28;45437;-84
2023/09/12 04:09:22;;;;;;;;;;;23.50;58.70;;;;;;4946095;28;46252;-83
2023/09/12 04:11:47;;;;;;;;;;;23.50;58.60;;;;;;4958035;28;45354;-84
2023/09/12 04:14:16;;;;;;;;;;;23.50;58.60;;;;;;4941626;28;44714;-84
2023/09/12 04:16:42;;;;;;;;;;;23.50;58.70;;;;;;4940716;28;45001;-83
2023/09/12 04:19:07;;;;;;;;;;;23.50;58.60;;;;;;4970923;28;46114;-84
2023/09/12 04:21:33;;;;;;;;;;;23.50;58.60;;;;;;4959799;28;45198;-83
2023/09/12 04:23:59;;;;;;;;;;;23.50;59.20;;;;;;4951413;28;45055;-83
2023/09/12 04:26:24;;;;;;;;;;;23.50;58.60;;;;;;4945936;28;45969;-83
2023/09/12 04:28:50;;;;;;;;;;;23.50;58.60;;;;;;4953525;28;48289;-83
2023/09/12 04:31:17;;;;;;;;;;;23.50;58.60;;;;;;4952149;28;45497;-85
2023/09/12 04:33:43;;;;;;;;;;;23.50;58.60;;;;;;4932569;28;45870;-82
2023/09/12 04:36:09;;;;;;;;;;;23.60;58.70;;;;;;4950962;28;46642;-84
2023/09/12 04:38:37;;;;;;;;;;;23.50;58.60;;;;;;4950752;28;46510;-84
2023/09/12 04:41:04;;;;;;;;;;;23.50;58.60;;;;;;4943872;28;45518;-84
2023/09/12 04:43:33;;;;;;;;;;;23.50;58.50;;;;;;4967328;28;45276;-83
2023/09/12 04:45:58;;;;;;;;;;;23.50;58.50;;;;;;4942052;28;44904;-81
2023/09/12 04:48:24;;;;;;;;;;;23.50;58.50;;;;;;4946529;28;46452;-84
2023/09/12 04:50:49;;;;;;;;;;;23.50;58.50;;;;;;4957892;28;45472;-84
2023/09/12 04:53:15;;;;;;;;;;;23.50;58.50;;;;;;4944504;28;45274;-84
2023/09/12 04:55:41;;;;;;;;;;;23.50;58.50;;;;;;4942437;28;45522;-84
2023/09/12 04:58:06;;;;;;;;;;;23.50;58.50;;;;;;4954355;28;45539;-84
2023/09/12 05:00:32;;;;;;;;;;;23.50;58.50;;;;;;4957620;28;45306;-84
2023/09/12 05:02:58;;;;;;;;;;;23.50;58.50;;;;;;4945662;28;45331;-83
2023/09/12 05:05:24;;;;;;;;;;;23.50;58.50;;;;;;4928564;28;44931;-83
2023/09/12 05:07:51;;;;;;;;;;;23.50;58.50;;;;;;4944559;28;45314;-84
2023/09/12 05:10:16;;;;;;;;;;;23.50;58.40;;;;;;4945736;28;45189;-84
2023/09/12 05:12:42;;;;;;;;;;;23.50;58.40;;;;;;4964713;28;45913;-84
2023/09/12 05:15:08;;;;;;;;;;;23.50;58.40;;;;;;4927849;28;45498;-83
2023/09/12 05:17:33;;;;;;;;;;;23.50;58.40;;;;;;4928435;28;45665;-84
2023/09/12 05:19:59;;;;;;;;;;;23.50;58.40;;;;;;4952550;28;45493;-84
2023/09/12 05:22:24;;;;;;;;;;;23.50;58.50;;;;;;4913872;28;45127;-83
2023/09/12 05:24:50;;;;;;;;;;;23.50;58.40;;;;;;4945577;28;44897;-83
2023/09/12 05:27:16;;;;;;;;;;;23.50;58.40;;;;;;4944773;28;46218;-83
2023/09/12 05:29:42;;;;;;;;;;;23.50;58.40;;;;;;4933594;28;45106;-81
2023/09/12 05:32:07;;;;;;;;;;;23.50;58.40;;;;;;4940134;28;45037;-84
2023/09/12 05:34:33;;;;;;;;;;;23.50;58.40;;;;;;4922674;28;45133;-84
2023/09/12 05:36:58;;;;;;;;;;;23.50;58.40;;;;;;4927735;28;48041;-85
2023/09/12 05:39:24;;;;;;;;;;;23.50;58.40;;;;;;4924030;28;45317;-85
2023/09/12 05:41:49;;;;;;;;;;;23.50;58.40;;;;;;4935000;28;44975;-84
2023/09/12 05:44:18;;;;;;;;;;;23.50;58.40;;;;;;4941487;28;45248;-85
2023/09/12 05:46:45;;;;;;;;;;;23.50;58.40;;;;;;4941847;28;45639;-83
2023/09/12 05:49:11;;;;;;;;;;;23.40;58.30;;;;;;4955418;28;45907;-86
2023/09/12 05:51:37;;;;;;;;;;;23.50;58.40;;;;;;4931518;28;44939;-85
2023/09/12 05:54:03;;;;;;;;;;;23.50;58.30;;;;;;4952535;28;45359;-85
2023/09/12 05:56:29;;;;;;;;;;;23.50;58.40;;;;;;4952080;28;45698;-85
2023/09/12 05:58:54;;;;;;;;;;;23.50;58.40;;;;;;4921230;28;45654;-84
2023/09/12 06:01:20;;;;;;;;;;;23.50;58.40;;;;;;4930898;28;44745;-85
2023/09/12 06:03:46;;;;;;;;;;;23.50;58.40;;;;;;4945061;28;45281;-83
2023/09/12 06:06:12;;;;;;;;;;;23.40;58.30;;;;;;4945571;28;45525;-84
2023/09/12 06:08:37;;;;;;;;;;;23.50;58.40;;;;;;4947661;28;45444;-85
2023/09/12 06:11:03;;;;;;;;;;;23.50;58.30;;;;;;4948808;28;45637;-85
2023/09/12 06:13:29;;;;;;;;;;;23.50;58.30;;;;;;4941420;28;45579;-85
2023/09/12 06:15:55;;;;;;;;;;;23.40;58.30;;;;;;4928160;28;45570;-84
2023/09/12 06:18:20;;;;;;;;;;;23.50;58.40;;;;;;4935982;28;45176;-85
2023/09/12 06:20:46;;;;;;;;;;;23.50;58.30;;;;;;4937192;28;44897;-83
2023/09/12 06:23:12;;;;;;;;;;;23.50;58.30;;;;;;4936536;28;44937;-83
2023/09/12 06:25:38;;;;;;;;;;;23.50;58.30;;;;;;4935776;28;45997;-85
2023/09/12 06:28:03;;;;;;;;;;;23.50;58.30;;;;;;4953625;28;45145;-84
2023/09/12 06:30:29;;;;;;;;;;;23.50;58.30;;;;;;4921975;28;45069;-85
2023/09/12 06:32:55;;;;;;;;;;;23.50;58.30;;;;;;4951815;28;45035;-84
2023/09/12 06:35:20;;;;;;;;;;;23.50;58.30;;;;;;4934358;28;46219;-85
2023/09/12 06:37:47;;;;;;;;;;;23.40;58.20;;;;;;4938171;28;45402;-83
2023/09/12 06:40:12;;;;;;;;;;;23.50;58.30;;;;;;4946563;28;45115;-83
2023/09/12 06:42:38;;;;;;;;;;;23.40;58.20;;;;;;4947655;28;45277;-84
2023/09/12 06:45:04;;;;;;;;;;;23.40;58.20;;;;;;4954957;28;45221;-81
2023/09/12 06:47:30;;;;;;;;;;;23.50;58.90;;;;;;4921268;28;44979;-84
2023/09/12 06:49:55;;;;;;;;;;;23.50;58.30;;;;;;4938152;28;44947;-84
2023/09/12 06:52:21;;;;;;;;;;;23.40;58.20;;;;;;4945470;28;46500;-85
2023/09/12 06:54:47;;;;;;;;;;;23.50;58.30;;;;;;4934518;28;45462;-84
2023/09/12 06:57:13;;;;;;;;;;;23.40;58.20;;;;;;4947804;28;45322;-85
2023/09/12 06:59:38;;;;;;;;;;;23.50;58.30;;;;;;4938981;28;44781;-85
2023/09/12 07:02:04;;;;;;;;;;;23.40;58.20;;;;;;4934299;28;45367;-85
2023/09/12 07:04:30;;;;;;;;;;;23.40;58.20;;;;;;4933392;28;46482;-83
2023/09/12 07:06:55;;;;;;;;;;;23.40;58.20;;;;;;4938660;28;45176;-85
2023/09/12 07:09:21;;;;;;;;;;;23.40;58.20;;;;;;4970193;28;44931;-85
2023/09/12 07:11:47;;;;;;;;;;;23.40;58.20;;;;;;4952650;28;45202;-84
2023/09/12 07:14:13;;;;;;;;;;;23.40;58.20;;;;;;4944503;28;46366;-84
2023/09/12 07:16:39;;;;;;;;;;;23.40;58.20;;;;;;4929483;28;45651;-84
2023/09/12 07:19:05;;;;;;;;;;;23.40;58.20;;;;;;4967706;28;45327;-85
2023/09/12 07:21:31;;;;;;;;;;;23.40;58.20;;;;;;4961482;28;45392;-85
2023/09/12 07:23:56;;;;;;;;;;;23.50;58.30;;;;;;4939204;28;46136;-85
2023/09/12 07:26:22;;;;;;;;;;;23.40;58.20;;;;;;4963626;28;45905;-84
2023/09/12 07:28:48;;;;;;;;;;;23.40;58.30;;;;;;4953168;28;45292;-84
2023/09/12 07:31:14;;;;;;;;;;;23.40;58.20;;;;;;4946086;28;45683;-84
2023/09/12 07:33:40;;;;;;;;;;;23.40;58.20;;;;;;4941340;28;47061;-84
2023/09/12 07:36:06;;;;;;;;;;;23.40;58.20;;;;;;4943347;28;44782;-85
2023/09/12 07:38:32;;;;;;;;;;;23.40;58.20;;;;;;4955738;28;45489;-84
2023/09/12 07:40:58;;;;;;;;;;;23.40;58.20;;;;;;4966462;28;45497;-85
2023/09/12 07:43:23;;;;;;;;;;;23.40;58.20;;;;;;4970370;28;45047;-83
2023/09/12 07:45:49;;;;;;;;;;;23.40;58.20;;;;;;4960426;28;45205;-85
2023/09/12 07:48:15;;;;;;;;;;;23.40;58.20;;;;;;4969167;28;45578;-85
2023/09/12 07:50:41;;;;;;;;;;;23.40;58.30;;;;;;4938453;28;44917;-85
2023/09/12 07:53:06;;;;;;;;;;;23.40;58.20;;;;;;4950230;28;45392;-85
2023/09/12 07:55:37;;;;;;;;;;;23.50;58.30;;;;;;4945414;28;46087;-85
2023/09/12 07:58:04;;;;;;;;;;;23.50;58.30;;;;;;4948913;28;44949;-85
2023/09/12 08:00:30;;;;;;;;;;;23.40;58.80;;;;;;4964021;28;45591;-85
2023/09/12 08:02:58;;;;;;;;;;;23.50;58.30;;;;;;4965868;28;46241;-84
2023/09/12 08:05:23;;;;;;;;;;;23.50;58.30;;;;;;4959340;28;44883;-84
2023/09/12 08:07:49;;;;;;;;;;;23.40;58.20;;;;;;4938625;28;45725;-85
2023/09/12 08:10:15;;;;;;;;;;;23.50;58.30;;;;;;4978966;28;44726;-84
2023/09/12 08:12:41;;;;;;;;;;;23.40;58.20;;;;;;4941058;28;46410;-85
2023/09/12 08:15:09;;;;;;;;;;;23.50;58.30;;;;;;4966164;28;63329;-80
2023/09/12 08:17:34;;;;;;;;;;;23.40;58.20;;;;;;4934934;28;46552;-82
2023/09/12 08:20:00;;;;;;;;;;;23.50;58.30;;;;;;4935955;28;45726;-84
2023/09/12 08:22:26;;;;;;;;;;;23.50;58.30;;;;;;4951753;28;46863;-85
2023/09/12 08:24:51;;;;;;;;;;;23.50;58.30;;;;;;4954472;28;45241;-85
2023/09/12 08:27:17;;;;;;;;;;;23.40;58.20;;;;;;4956188;28;45531;-85
2023/09/12 08:29:44;;;;;;;;;;;23.50;58.30;;;;;;4962841;28;45305;-85
2023/09/12 08:32:10;;;;;;;;;;;23.40;58.20;;;;;;4967201;28;46075;-84
2023/09/12 08:34:35;;;;;;;;;;;23.50;58.30;;;;;;4971501;28;45339;-85
2023/09/12 08:37:01;;;;;;;;;;;23.50;58.30;;;;;;4965574;28;45221;-85
2023/09/12 08:39:27;;;;;;;;;;;23.50;58.30;;;;;;4952585;28;45209;-83
2023/09/12 08:41:53;;;;;;;;;;;23.50;58.50;;;;;;4959004;28;46029;-85
2023/09/12 08:44:19;;;;;;;;;;;23.40;58.20;;;;;;4937444;28;46768;-85
2023/09/12 08:46:44;;;;;;;;;;;23.50;58.20;;;;;;4938507;28;44918;-85
2023/09/12 08:49:10;;;;;;;;;;;23.50;58.30;;;;;;4942838;28;44842;-85
2023/09/12 08:51:37;;;;;;;;;;;23.50;58.30;;;;;;4960618;28;45341;-85
2023/09/12 08:54:04;;;;;;;;;;;23.50;58.30;;;;;;4970866;28;45296;-83
2023/09/12 08:56:29;;;;;;;;;;;23.50;58.20;;;;;;4965469;28;44974;-85
2023/09/12 08:58:55;;;;;;;;;;;23.50;58.20;;;;;;4968369;28;45199;-85
2023/09/12 09:01:21;;;;;;;;;;;23.50;58.20;;;;;;4943638;28;46189;-85
2023/09/12 09:03:47;;;;;;;;;;;23.50;58.20;;;;;;4965428;28;45547;-82
2023/09/12 09:06:12;;;;;;;;;;;23.50;58.20;;;;;;4963154;28;45269;-83
2023/09/12 09:08:38;;;;;;;;;;;23.50;58.30;;;;;;4949295;28;44927;-85
2023/09/12 09:11:06;;;;;;;;;;;23.50;58.20;;;;;;4959890;28;45771;-85
2023/09/12 09:13:32;;;;;;;;;;;23.50;58.20;;;;;;4981833;28;46608;-84
2023/09/12 09:16:12;;;;;;;;;;;23.50;58.30;;;;;;4936090;28;45320;-84
2023/09/12 09:18:50;;;;;;;;;;;23.50;58.30;;;;;;4955058;28;45077;-83
2023/09/12 09:21:19;;;;;;;;;;;23.50;58.20;;;;;;4949346;28;46950;-84
2023/09/12 09:23:46;;;;;;;;;;;23.50;58.30;;;;;;4941409;28;45295;-85
2023/09/12 09:26:12;;;;;;;;;;;23.50;58.30;;;;;;4961869;28;44732;-85
2023/09/12 09:28:39;;;;;;;;;;;23.50;58.30;;;;;;4969811;28;45228;-85
2023/09/12 09:31:07;;;;;;;;;;;23.50;58.20;;;;;;4980463;28;46245;-83
2023/09/12 09:33:34;;;;;;;;;;;23.50;58.40;;;;;;4971601;28;46169;-84
2023/09/12 09:36:04;;;;;;;;;;;23.50;58.20;;;;;;4954636;28;45463;-84
2023/09/12 09:38:30;;;;;;;;;;;23.50;58.30;;;;;;4958062;28;45254;-85
2023/09/12 09:40:56;;;;;;;;;;;23.50;58.20;;;;;;4965456;28;46121;-85
2023/09/12 09:43:22;;;;;;;;;;;23.50;58.30;;;;;;4939825;28;44657;-83
2023/09/12 09:45:47;;;;;;;;;;;23.50;58.20;;;;;;4962374;28;44691;-84
2023/09/12 09:48:19;;;;;;;;;;;23.50;58.30;;;;;;4965969;28;45392;-85
2023/09/12 09:50:45;;;;;;;;;;;23.50;58.20;;;;;;4954189;28;45994;-84
2023/09/12 09:53:11;;;;;;;;;;;23.50;58.20;;;;;;4949448;28;45457;-85
2023/09/12 09:55:37;;;;;;;;;;;23.50;58.30;;;;;;4966469;28;45606;-85
2023/09/12 09:58:05;;;;;;;;;;;23.50;58.20;;;;;;4942681;28;45011;-85
2023/09/12 10:00:30;;;;;;;;;;;23.50;58.20;;;;;;4966451;28;45371;-84
2023/09/12 10:02:56;;;;;;;;;;;23.50;58.20;;;;;;4955053;28;45198;-84
2023/09/12 10:05:22;;;;;;;;;;;23.50;58.30;;;;;;4986774;28;45602;-82
2023/09/12 10:07:49;;;;;;;;;;;23.50;58.30;;;;;;4958368;28;45719;-83
2023/09/12 10:10:14;;;;;;;;;;;23.50;58.30;;;;;;4948719;28;46006;-84
2023/09/12 10:12:44;;;;;;;;;;;23.50;58.30;;;;;;4942830;28;45591;-85
2023/09/12 10:15:09;;;;;;;;;;;23.50;58.30;;;;;;4971131;28;45492;-81
2023/09/12 10:17:36;;;;;;;;;;;23.50;58.30;;;;;;4933854;28;45619;-84
2023/09/12 10:20:04;;;;;;;;;;;23.50;58.30;;;;;;4967767;28;45534;-81
2023/09/12 10:22:32;;;;;;;;;;;23.50;58.30;;;;;;4963529;28;45084;-84
2023/09/12 10:24:58;;;;;;;;;;;23.50;58.30;;;;;;4975937;28;45423;-82
2023/09/12 10:27:25;;;;;;;;;;;23.50;58.30;;;;;;4945925;28;44680;-83
2023/09/12 10:29:52;;;;;;;;;;;23.60;58.30;;;;;;4956695;28;46019;-84
2023/09/12 10:32:19;;;;;;;;;;;23.50;58.30;;;;;;4951554;28;44732;-84
2023/09/12 10:34:45;;;;;;;;;;;23.50;58.30;;;;;;4970226;28;44930;-83
2023/09/12 10:37:11;;;;;;;;;;;23.50;58.30;;;;;;4948991;28;45138;-85
2023/09/12 10:39:37;;;;;;;;;;;23.60;58.90;;;;;;4963501;28;46168;-84
2023/09/12 10:42:04;;;;;;;;;;;23.50;58.30;;;;;;4966436;28;44750;-83
2023/09/12 10:44:30;;;;;;;;;;;23.50;58.30;;;;;;4982810;28;45157;-84
2023/09/12 10:46:56;;;;;;;;;;;23.60;58.30;;;;;;4979878;28;45204;-84
2023/09/12 10:49:21;;;;;;;;;;;23.60;58.30;;;;;;4940663;28;46189;-82
2023/09/12 10:51:47;;;;;;;;;;;23.60;58.30;;;;;;4930800;28;49012;-84
2023/09/12 10:54:13;;;;;;;;;;;23.60;58.30;;;;;;4963290;28;45105;-81
2023/09/12 10:56:39;;;;;;;;;;;23.60;58.30;;;;;;4950340;28;45660;-84
2023/09/12 10:59:06;;;;;;;;;;;23.60;58.30;;;;;;4953971;28;46332;-83
2023/09/12 11:01:38;;;;;;;;;;;23.60;58.90;;;;;;4938646;28;45393;-84
2023/09/12 11:04:19;;;;;;;;;;;23.60;58.40;;;;;;4964389;28;45589;-84
2023/09/12 11:06:45;;;;;;;;;;;23.60;58.30;;;;;;4960659;28;45834;-84
2023/09/12 11:09:13;;;;;;;;;;;23.60;58.40;;;;;;4973093;28;46439;-84
2023/09/12 11:11:48;;;;;;;;;;;23.60;58.40;;;;;;4950271;28;45290;-85
2023/09/12 11:14:15;;;;;;;;;;;23.60;58.40;;;;;;4957984;28;45431;-82
2023/09/12 11:16:40;;;;;;;;;;;23.60;58.40;;;;;;4961614;28;45293;-84
2023/09/12 11:19:16;;;;;;;;;;;23.60;58.40;;;;;;4957973;28;45352;-83
2023/09/12 11:21:42;;;;;;;;;;;23.60;58.50;;;;;;4943154;28;44895;-82
2023/09/12 11:24:08;;;;;;;;;;;23.60;58.40;;;;;;4953782;28;44912;-84
2023/09/12 11:26:33;;;;;;;;;;;23.60;58.40;;;;;;4934847;28;45310;-85
2023/09/12 11:29:12;;;;;;;;;;;23.60;58.40;;;;;;4955618;28;46061;-84
2023/09/12 11:31:41;;;;;;;;;;;23.70;58.50;;;;;;4945928;28;45623;-82
2023/09/12 11:34:10;;;;;;;;;;;23.60;58.50;;;;;;4951769;28;46044;-84
2023/09/12 11:36:42;;;;;;;;;;;23.70;58.50;;;;;;4948712;28;45349;-84
2023/09/12 11:39:22;;;;;;;;;;;23.70;58.50;;;;;;4957093;28;46431;-84
2023/09/12 11:41:47;;;;;;;;;;;23.60;58.50;;;;;;4946201;28;46265;-83
2023/09/12 11:44:13;;;;;;;;;;;23.70;58.60;;;;;;4962824;28;45101;-83
2023/09/12 11:46:38;;;;;;;;;;;23.60;58.50;;;;;;4964990;28;45590;-83
2023/09/12 11:49:04;;;;;;;;;;;23.70;58.60;;;;;;4966932;28;45366;-84
2023/09/12 11:51:30;;;;;;;;;;;23.60;58.50;;;;;;4966935;28;44923;-84
2023/09/12 11:53:59;;;;;;;;;;;23.70;58.60;;;;;;4953935;28;45238;-84
2023/09/12 11:56:27;;;;;;;;;;;23.70;58.60;;;;;;4978758;28;44922;-84
2023/09/12 11:58:55;;;;;;;;;;;23.70;58.60;;;;;;4964426;28;45105;-84
2023/09/12 12:01:21;;;;;;;;;;;23.70;58.60;;;;;;4943060;28;46093;-83
2023/09/12 12:03:52;;;;;;;;;;;23.70;58.60;;;;;;4952131;28;45305;-84
2023/09/12 12:06:18;;;;;;;;;;;23.70;58.60;;;;;;4948043;28;45716;-83
2023/09/12 12:08:44;;;;;;;;;;;23.70;58.60;;;;;;4952637;28;46394;-84
2023/09/12 12:11:09;;;;;;;;;;;23.70;58.60;;;;;;4951340;28;44665;-83
2023/09/12 12:13:35;;;;;;;;;;;23.70;58.60;;;;;;4951651;28;45501;-84
2023/09/12 12:16:00;;;;;;;;;;;23.70;58.60;;;;;;4925876;28;45191;-83
2023/09/12 12:18:26;;;;;;;;;;;23.70;58.60;;;;;;4933302;28;45489;-83
2023/09/12 12:20:51;;;;;;;;;;;23.70;58.70;;;;;;4940252;28;45659;-84
2023/09/12 12:23:17;;;;;;;;;;;23.70;58.70;;;;;;4956164;28;45194;-84
2023/09/12 12:25:42;;;;;;;;;;;23.70;58.70;;;;;;4937327;28;45650;-84
2023/09/12 12:28:08;;;;;;;;;;;23.70;58.70;;;;;;4952771;28;47675;-83
2023/09/12 12:30:34;;;;;;;;;;;23.70;58.70;;;;;;4945824;28;45414;-84
2023/09/12 12:33:06;;;;;;;;;;;23.70;58.70;;;;;;4947141;28;45288;-82
2023/09/12 12:35:32;;;;;;;;;;;23.70;58.70;;;;;;4943826;28;44705;-83
2023/09/12 12:37:58;;;;;;;;;;;23.70;58.70;;;;;;4936916;28;48217;-83
2023/09/12 12:40:25;;;;;;;;;;;23.70;58.70;;;;;;4952423;28;45434;-81
2023/09/12 12:42:50;;;;;;;;;;;23.70;58.80;;;;;;4966233;28;45366;-84
2023/09/12 12:45:16;;;;;;;;;;;23.70;58.70;;;;;;4954211;28;45514;-83
2023/09/12 12:47:42;;;;;;;;;;;23.70;58.70;;;;;;4951692;28;47813;-82
2023/09/12 12:50:08;;;;;;;;;;;23.70;58.70;;;;;;4962183;28;44905;-84
2023/09/12 12:52:34;;;;;;;;;;;23.70;58.70;;;;;;4941915;28;45230;-84
2023/09/12 12:55:03;;;;;;;;;;;23.70;58.70;;;;;;4973967;28;44899;-83
2023/09/12 12:57:29;;;;;;;;;;;23.70;58.80;;;;;;4931988;28;45318;-84
2023/09/12 12:59:55;;;;;;;;;;;23.80;58.80;;;;;;4984937;28;44776;-84
2023/09/12 13:02:20;;;;;;;;;;;23.70;58.70;;;;;;4961006;28;44751;-84
2023/09/12 13:04:46;;;;;;;;;;;23.70;58.80;;;;;;4949083;28;45817;-85
2023/09/12 13:07:11;;;;;;;;;;;23.70;58.80;;;;;;4955071;28;46962;-85
2023/09/12 13:09:37;;;;;;;;;;;23.70;58.80;;;;;;4944704;28;45305;-85
2023/09/12 13:12:04;;;;;;;;;;;23.70;58.80;;;;;;4949540;28;45572;-84
2023/09/12 13:14:33;;;;;;;;;;;23.70;58.80;;;;;;4968926;28;45401;-84
2023/09/12 13:16:59;;;;;;;;;;;23.70;58.80;;;;;;4958276;28;45967;-84
2023/09/12 13:19:25;;;;;;;;;;;23.70;58.80;;;;;;4964760;28;45358;-85
2023/09/12 13:21:51;;;;;;;;;;;23.70;58.80;;;;;;4937270;28;45403;-85
2023/09/12 13:24:16;;;;;;;;;;;23.70;58.80;;;;;;4970103;28;45469;-84
2023/09/12 13:26:42;;;;;;;;;;;23.70;58.80;;;;;;4961597;28;46792;-84
2023/09/12 13:29:08;;;;;;;;;;;23.70;58.80;;;;;;4960931;28;44978;-85
2023/09/12 13:31:34;;;;;;;;;;;23.70;58.80;;;;;;4949222;28;45265;-86
2023/09/12 13:34:02;;;;;;;;;;;23.70;58.90;;;;;;4938690;28;45095;-86
2023/09/12 13:36:28;;;;;;;;;;;23.70;58.80;;;;;;4948920;28;46661;-86
2023/09/12 13:38:54;;;;;;;;;;;23.80;58.90;;;;;;4969942;28;45186;-85
2023/09/12 13:41:22;;;;;;;;;;;23.70;58.90;;;;;;4961735;28;45361;-86
2023/09/12 13:43:47;;;;;;;;;;;23.70;58.90;;;;;;4958311;28;45305;-86
2023/09/12 13:46:13;;;;;;;;;;;23.80;58.90;;;;;;4936274;28;46815;-86
2023/09/12 13:48:39;;;;;;;;;;;23.70;58.90;;;;;;4967075;28;45449;-86
2023/09/12 13:51:05;;;;;;;;;;;23.70;58.90;;;;;;4954613;28;45400;-86
2023/09/12 13:53:30;;;;;;;;;;;23.70;58.90;;;;;;4970331;28;45716;-86
2023/09/12 13:55:58;;;;;;;;;;;23.70;58.90;;;;;;4961041;28;46090;-84
2023/09/12 13:58:23;;;;;;;;;;;23.70;58.90;;;;;;4973587;28;44922;-86
2023/09/12 14:00:49;;;;;;;;;;;23.70;58.90;;;;;;4941313;28;44845;-84
2023/09/12 14:03:14;;;;;;;;;;;23.70;59.50;;;;;;4960212;28;45127;-86
2023/09/12 14:05:40;;;;;;;;;;;23.70;58.90;;;;;;4960326;28;46792;-86
2023/09/12 14:08:06;;;;;;;;;;;23.70;58.90;;;;;;4969517;28;45230;-86
2023/09/12 14:10:32;;;;;;;;;;;23.70;58.90;;;;;;4966150;28;44998;-85
2023/09/12 14:12:57;;;;;;;;;;;23.70;58.90;;;;;;4980768;28;45075;-86
2023/09/12 14:15:23;;;;;;;;;;;23.80;58.90;;;;;;4969540;28;46768;-85
2023/09/12 14:17:48;;;;;;;;;;;23.80;59.00;;;;;;4969026;28;45115;-85
2023/09/12 14:20:17;;;;;;;;;;;23.70;58.90;;;;;;4964619;28;45525;-88
2023/09/12 14:22:43;;;;;;;;;;;23.70;58.90;;;;;;4970403;28;45168;-86
2023/09/12 14:25:14;;;;;;;;;;;23.80;58.90;;;;;;4954468;28;46063;-84
2023/09/12 14:27:43;;;;;;;;;;;23.70;58.90;;;;;;4987840;28;44895;-86
2023/09/12 14:30:09;;;;;;;;;;;23.70;58.90;;;;;;4946359;28;45433;-86
2023/09/12 14:32:36;;;;;;;;;;;23.70;58.90;;;;;;4955941;28;45128;-86
2023/09/12 14:35:01;;;;;;;;;;;23.80;59.00;;;;;;4956350;28;45454;-85
2023/09/12 14:37:27;;;;;;;;;;;23.70;58.90;;;;;;4949411;28;45208;-85
2023/09/12 14:39:53;;;;;;;;;;;23.70;58.90;;;;;;4958360;28;45632;-86
2023/09/12 14:42:19;;;;;;;;;;;23.70;59.00;;;;;;4968776;28;45598;-86
2023/09/12 14:44:45;;;;;;;;;;;23.70;58.90;;;;;;4989420;28;45628;-85
2023/09/12 14:47:11;;;;;;;;;;;23.70;59.00;;;;;;4980463;28;45094;-84
2023/09/12 14:49:37;;;;;;;;;;;23.70;59.00;;;;;;4954778;28;44925;-86
2023/09/12 14:52:02;;;;;;;;;;;23.80;59.00;;;;;;4970849;28;45514;-86
2023/09/12 14:54:28;;;;;;;;;;;23.70;59.00;;;;;;4966302;28;46045;-85
2023/09/12 14:56:53;;;;;;;;;;;23.70;59.00;;;;;;4980252;28;45561;-87
2023/09/12 14:59:20;;;;;;;;;;;23.80;59.00;;;;;;4976575;28;45059;-86
2023/09/12 15:01:46;;;;;;;;;;;23.80;59.00;;;;;;4953484;28;45563;-85
2023/09/12 15:04:11;;;;;;;;;;;23.70;59.00;;;;;;4953583;28;45802;-84
2023/09/12 15:06:37;;;;;;;;;;;23.80;59.00;;;;;;4948932;28;45413;-86
2023/09/12 15:09:03;;;;;;;;;;;23.70;59.00;;;;;;4983011;28;45234;-86
2023/09/12 15:11:29;;;;;;;;;;;23.70;59.00;;;;;;4946842;28;45132;-85
2023/09/12 15:13:54;;;;;;;;;;;23.80;59.00;;;;;;4953220;28;47104;-87
2023/09/12 15:16:20;;;;;;;;;;;23.80;59.00;;;;;;4966164;28;45552;-86
2023/09/12 15:18:45;;;;;;;;;;;23.80;59.00;;;;;;4950569;28;45376;-85
2023/09/12 15:21:11;;;;;;;;;;;23.80;59.00;;;;;;4942620;28;45764;-85
2023/09/12 15:23:37;;;;;;;;;;;23.80;59.00;;;;;;4956865;28;47356;-87
2023/09/12 15:26:02;;;;;;;;;;;23.80;59.00;;;;;;4947926;28;45020;-87
2023/09/12 15:28:28;;;;;;;;;;;23.80;59.00;;;;;;4942918;28;45005;-86
2023/09/12 15:30:53;;;;;;;;;;;23.80;59.00;;;;;;4978214;28;45096;-86
2023/09/12 15:33:20;;;;;;;;;;;23.80;59.10;;;;;;4972574;28;46393;-86
2023/09/12 15:35:45;;;;;;;;;;;23.80;59.10;;;;;;4977767;28;45112;-86
2023/09/12 15:38:11;;;;;;;;;;;23.80;59.10;;;;;;4980902;28;45236;-87
2023/09/12 15:40:37;;;;;;;;;;;23.80;59.10;;;;;;4977118;28;45701;-87
2023/09/12 15:43:03;;;;;;;;;;;23.80;59.10;;;;;;4958598;28;46384;-87
2023/09/12 15:45:28;;;;;;;;;;;23.80;59.10;;;;;;4952712;28;45587;-86
2023/09/12 15:47:54;;;;;;;;;;;23.80;59.10;;;;;;4954708;28;44970;-86
2023/09/12 15:50:20;;;;;;;;;;;23.80;59.10;;;;;;4964789;28;45712;-86
2023/09/12 15:52:45;;;;;;;;;;;23.80;59.10;;;;;;4972661;28;45202;-86
2023/09/12 15:55:11;;;;;;;;;;;23.80;59.10;;;;;;4936965;28;45507;-85
2023/09/12 15:57:37;;;;;;;;;;;23.80;59.10;;;;;;4938136;28;45377;-86
2023/09/12 16:00:06;;;;;;;;;;;23.80;59.10;;;;;;4967292;28;45231;-84
2023/09/12 16:02:32;;;;;;;;;;;23.80;59.10;;;;;;4926170;28;46104;-86
2023/09/12 16:04:58;;;;;;;;;;;23.80;59.10;;;;;;4920137;28;45484;-87
2023/09/12 16:07:24;;;;;;;;;;;23.80;59.10;;;;;;4924006;28;45453;-85
2023/09/12 16:09:49;;;;;;;;;;;23.80;59.10;;;;;;4939777;28;45322;-85
2023/09/12 16:12:15;;;;;;;;;;;23.80;59.10;;;;;;4950172;28;45888;-85
2023/09/12 16:14:40;;;;;;;;;;;23.80;59.10;;;;;;4935235;28;45421;-86
2023/09/12 16:17:06;;;;;;;;;;;23.80;59.10;;;;;;4948452;28;45662;-86
2023/09/12 16:19:33;;;;;;;;;;;23.80;59.10;;;;;;4933813;28;45329;-87
2023/09/12 16:21:59;;;;;;;;;;;23.80;59.10;;;;;;4927208;28;46304;-86
2023/09/12 16:24:24;;;;;;;;;;;23.80;59.10;;;;;;4938886;28;45525;-84
2023/09/12 16:26:50;;;;;;;;;;;23.80;59.10;;;;;;4914743;28;45543;-85
2023/09/12 16:29:15;;;;;;;;;;;23.80;59.10;;;;;;4930762;28;45781;-87
2023/09/12 16:31:41;;;;;;;;;;;23.80;59.10;;;;;;4920292;28;46093;-87
2023/09/12 16:34:06;;;;;;;;;;;23.90;59.20;;;;;;4945614;28;44892;-87
2023/09/12 16:36:32;;;;;;;;;;;23.90;59.10;;;;;;4936087;28;45238;-86
2023/09/12 16:38:58;;;;;;;;;;;23.90;59.20;;;;;;4941871;28;45406;-85
2023/09/12 16:41:23;;;;;;;;;;;23.90;59.20;;;;;;4937629;28;47340;-85
2023/09/12 16:43:49;;;;;;;;;;;23.80;59.10;;;;;;4946847;28;45320;-85
2023/09/12 16:46:15;;;;;;;;;;;23.90;59.30;;;;;;4921115;28;45196;-85
2023/09/12 16:48:42;;;;;;;;;;;23.90;59.30;;;;;;4941739;28;44932;-86
2023/09/12 16:51:10;;;;;;;;;;;23.90;59.50;;;;;;4924826;28;48163;-84
2023/09/12 16:53:36;;;;;;;;;;;23.90;59.30;;;;;;4946350;28;45272;-84
2023/09/12 16:56:02;;;;;;;;;;;23.90;59.40;;;;;;4922732;28;45764;-84
2023/09/12 16:58:27;;;;;;;;;;;23.90;59.40;;;;;;4943635;28;44917;-85
2023/09/12 17:00:53;;;;;;;;;;;23.90;59.30;;;;;;4923537;28;45679;-84
2023/09/12 17:03:19;;;;;;;;;;;23.90;59.40;;;;;;4942745;28;46379;-85
2023/09/12 17:05:45;;;;;;;;;;;23.90;59.40;;;;;;4963646;28;45290;-85
2023/09/12 17:08:10;;;;;;;;;;;23.90;59.50;;;;;;4966205;28;45869;-85
2023/09/12 17:10:38;;;;;;;;;;;23.90;59.50;;;;;;4942522;28;45595;-84